This is the latest recevied weather packets stored in our database for station/object IU2DXM. If no packets are shown the sender has not sent any weather packets the latest 10 day(s).
| Time | Temp. | Humidity | Pressure | Rain* | Wind** | Luminosity | Snow |
|---|---|---|---|---|---|---|---|
| 1777725617 | 23.33° C | - | - | 0 mm | - | 765 W/m² | - |
| 1777723217 | 22.22° C | - | - | 0 mm | - | 836 W/m² | - |
| 1777721437 | 22.22° C | - | - | 0 mm | - | 803 W/m² | - |
| 1777713617 | 20° C | - | - | 0 mm | - | 733 W/m² | - |
| 1777712437 | 18.89° C | - | - | 0 mm | - | 703 W/m² | - |
| 1777710617 | 17.78° C | - | - | 0 mm | - | 631 W/m² | - |
| 1777704617 | 12.78° C | - | - | 0 mm | - | 354 W/m² | - |
| 1777702816 | 11.67° C | - | - | 0 mm | - | 36 W/m² | - |
| 1777701017 | 10.56° C | - | - | 0 mm | - | 32 W/m² | - |
| 1777700437 | 10.56° C | - | - | 0 mm | - | 30 W/m² | - |
| 1777695616 | 8.89° C | - | - | 0 mm | - | 8 W/m² | - |
| 1777694416 | 8.89° C | - | - | 0 mm | - | 0 W/m² | - |
| 1777688417 | 9.44° C | - | - | 0 mm | - | 0 W/m² | - |
| 1777685416 | 10.56° C | - | - | 0 mm | - | 0 W/m² | - |
| 1777682418 | 10.56° C | - | - | 0 mm | - | 0 W/m² | - |
| 1777677618 | 11.67° C | - | - | 0 mm | - | 0 W/m² | - |
| 1777676417 | 12.22° C | - | - | 0 mm | - | 0 W/m² | - |
| 1777671017 | 13.89° C | - | - | 0 mm | - | 0 W/m² | - |
| 1777670417 | 13.89° C | - | - | 0 mm | - | 0 W/m² | - |
| 1777669216 | 14.44° C | - | - | 0 mm | - | 0 W/m² | - |
| 1777668636 | 15° C | - | - | 0 mm | - | 0 W/m² | - |
| 1777667437 | 16.11° C | - | - | 0 mm | - | 0 W/m² | - |
| 1777656616 | 20° C | - | - | 0 mm | - | 86 W/m² | - |
| 1777651215 | 21.11° C | - | - | 0 mm | - | 360 W/m² | - |
| 1777647616 | 21.11° C | - | - | 0 mm | - | 526 W/m² | - |
* Rain latest hour (hover to see other rain measurements)
** Current wind speed in m/s (hover to see current wind gust speed)